sensor_id;sensor_type;location;lat;lon;timestamp;P1;durP1;ratioP1;P2;durP2;ratioP2
50906;SDS011;36882;27.680;85.304;2023-08-07T00:01:24;3.92;;;2.92;;
50906;SDS011;36882;27.680;85.304;2023-08-07T00:06:23;5.10;;;2.25;;
50906;SDS011;36882;27.680;85.304;2023-08-07T00:08:53;5.63;;;2.65;;
50906;SDS011;36882;27.680;85.304;2023-08-07T00:11:23;5.10;;;2.95;;
50906;SDS011;36882;27.680;85.304;2023-08-07T00:13:53;4.15;;;2.15;;
50906;SDS011;36882;27.680;85.304;2023-08-07T00:18:53;5.70;;;3.20;;
50906;SDS011;36882;27.680;85.304;2023-08-07T00:21:24;5.88;;;3.28;;
50906;SDS011;36882;27.680;85.304;2023-08-07T00:23:54;5.78;;;2.97;;
50906;SDS011;36882;27.680;85.304;2023-08-07T00:26:24;12.15;;;3.58;;
50906;SDS011;36882;27.680;85.304;2023-08-07T00:28:53;4.90;;;2.47;;
50906;SDS011;36882;27.680;85.304;2023-08-07T00:31:24;5.50;;;3.30;;
50906;SDS011;36882;27.680;85.304;2023-08-07T00:33:54;5.13;;;3.03;;
50906;SDS011;36882;27.680;85.304;2023-08-07T00:44:53;6.03;;;3.25;;
50906;SDS011;36882;27.680;85.304;2023-08-07T00:49:52;5.35;;;4.28;;
50906;SDS011;36882;27.680;85.304;2023-08-07T00:52:23;4.50;;;3.70;;
50906;SDS011;36882;27.680;85.304;2023-08-07T00:54:59;6.28;;;3.97;;
50906;SDS011;36882;27.680;85.304;2023-08-07T00:57:29;7.28;;;4.13;;
50906;SDS011;36882;27.680;85.304;2023-08-07T01:00:00;5.35;;;3.35;;
50906;SDS011;36882;27.680;85.304;2023-08-07T01:02:30;6.82;;;4.13;;
50906;SDS011;36882;27.680;85.304;2023-08-07T01:05:01;6.72;;;4.10;;
50906;SDS011;36882;27.680;85.304;2023-08-07T01:07:31;6.15;;;4.10;;
50906;SDS011;36882;27.680;85.304;2023-08-07T01:10:01;7.10;;;3.92;;
50906;SDS011;36882;27.680;85.304;2023-08-07T01:12:42;5.55;;;4.35;;
50906;SDS011;36882;27.680;85.304;2023-08-07T01:15:19;8.45;;;4.18;;
50906;SDS011;36882;27.680;85.304;2023-08-07T01:17:54;5.10;;;3.78;;
50906;SDS011;36882;27.680;85.304;2023-08-07T01:20:25;7.85;;;4.75;;
50906;SDS011;36882;27.680;85.304;2023-08-07T01:25:25;5.93;;;4.00;;
50906;SDS011;36882;27.680;85.304;2023-08-07T01:28:08;5.18;;;4.10;;
50906;SDS011;36882;27.680;85.304;2023-08-07T01:30:47;6.38;;;4.30;;
50906;SDS011;36882;27.680;85.304;2023-08-07T01:36:06;4.70;;;4.15;;
50906;SDS011;36882;27.680;85.304;2023-08-07T01:38:37;4.72;;;3.20;;
50906;SDS011;36882;27.680;85.304;2023-08-07T01:41:08;4.78;;;4.05;;
50906;SDS011;36882;27.680;85.304;2023-08-07T01:43:38;5.32;;;3.70;;
50906;SDS011;36882;27.680;85.304;2023-08-07T01:46:10;6.75;;;4.35;;
50906;SDS011;36882;27.680;85.304;2023-08-07T01:48:40;9.18;;;5.55;;
50906;SDS011;36882;27.680;85.304;2023-08-07T01:51:10;9.88;;;6.07;;
50906;SDS011;36882;27.680;85.304;2023-08-07T01:56:09;10.13;;;6.80;;
50906;SDS011;36882;27.680;85.304;2023-08-07T01:58:39;13.38;;;11.27;;
50906;SDS011;36882;27.680;85.304;2023-08-07T02:01:09;12.10;;;8.05;;
50906;SDS011;36882;27.680;85.304;2023-08-07T02:06:08;9.15;;;6.57;;
50906;SDS011;36882;27.680;85.304;2023-08-07T02:11:07;10.50;;;7.55;;
50906;SDS011;36882;27.680;85.304;2023-08-07T02:13:37;12.55;;;8.55;;
50906;SDS011;36882;27.680;85.304;2023-08-07T02:18:36;11.43;;;6.72;;
50906;SDS011;36882;27.680;85.304;2023-08-07T02:23:35;15.70;;;9.88;;
50906;SDS011;36882;27.680;85.304;2023-08-07T02:26:05;13.73;;;8.65;;
50906;SDS011;36882;27.680;85.304;2023-08-07T02:31:04;16.58;;;8.88;;
50906;SDS011;36882;27.680;85.304;2023-08-07T02:33:34;9.43;;;6.68;;
50906;SDS011;36882;27.680;85.304;2023-08-07T02:38:34;11.50;;;7.50;;
50906;SDS011;36882;27.680;85.304;2023-08-07T02:41:03;9.68;;;7.63;;
50906;SDS011;36882;27.680;85.304;2023-08-07T02:46:03;12.00;;;7.80;;
50906;SDS011;36882;27.680;85.304;2023-08-07T02:48:37;9.00;;;7.40;;
50906;SDS011;36882;27.680;85.304;2023-08-07T02:51:08;11.88;;;7.93;;
50906;SDS011;36882;27.680;85.304;2023-08-07T02:53:38;11.77;;;8.38;;
50906;SDS011;36882;27.680;85.304;2023-08-07T02:56:08;15.05;;;8.65;;
50906;SDS011;36882;27.680;85.304;2023-08-07T02:58:38;14.68;;;10.02;;
50906;SDS011;36882;27.680;85.304;2023-08-07T03:03:40;15.45;;;8.00;;
50906;SDS011;36882;27.680;85.304;2023-08-07T03:06:10;12.10;;;9.20;;
50906;SDS011;36882;27.680;85.304;2023-08-07T03:08:40;9.52;;;8.15;;
50906;SDS011;36882;27.680;85.304;2023-08-07T03:11:11;11.77;;;10.13;;
50906;SDS011;36882;27.680;85.304;2023-08-07T03:13:41;16.17;;;12.32;;
50906;SDS011;36882;27.680;85.304;2023-08-07T03:16:12;16.33;;;13.07;;
50906;SDS011;36882;27.680;85.304;2023-08-07T03:18:42;15.18;;;12.40;;
50906;SDS011;36882;27.680;85.304;2023-08-07T03:21:12;14.63;;;13.05;;
50906;SDS011;36882;27.680;85.304;2023-08-07T03:23:42;19.60;;;11.52;;
50906;SDS011;36882;27.680;85.304;2023-08-07T03:26:12;12.70;;;11.30;;
50906;SDS011;36882;27.680;85.304;2023-08-07T03:28:45;15.77;;;12.82;;
50906;SDS011;36882;27.680;85.304;2023-08-07T03:31:16;16.73;;;12.98;;
50906;SDS011;36882;27.680;85.304;2023-08-07T03:33:46;17.77;;;12.32;;
50906;SDS011;36882;27.680;85.304;2023-08-07T03:36:16;17.20;;;12.68;;
50906;SDS011;36882;27.680;85.304;2023-08-07T03:41:15;22.83;;;13.40;;
50906;SDS011;36882;27.680;85.304;2023-08-07T03:43:45;17.08;;;13.60;;
50906;SDS011;36882;27.680;85.304;2023-08-07T03:46:15;25.15;;;16.85;;
50906;SDS011;36882;27.680;85.304;2023-08-07T03:48:45;17.25;;;13.98;;
50906;SDS011;36882;27.680;85.304;2023-08-07T03:51:15;17.73;;;14.32;;
50906;SDS011;36882;27.680;85.304;2023-08-07T03:53:45;17.88;;;13.95;;
50906;SDS011;36882;27.680;85.304;2023-08-07T03:56:15;19.88;;;14.57;;
50906;SDS011;36882;27.680;85.304;2023-08-07T03:58:45;31.75;;;14.82;;
50906;SDS011;36882;27.680;85.304;2023-08-07T04:01:15;18.38;;;13.23;;
50906;SDS011;36882;27.680;85.304;2023-08-07T04:03:48;19.80;;;14.18;;
50906;SDS011;36882;27.680;85.304;2023-08-07T04:06:21;15.38;;;12.35;;
50906;SDS011;36882;27.680;85.304;2023-08-07T04:08:52;20.55;;;15.20;;
50906;SDS011;36882;27.680;85.304;2023-08-07T04:13:53;25.67;;;17.08;;
50906;SDS011;36882;27.680;85.304;2023-08-07T04:16:23;21.90;;;16.30;;
50906;SDS011;36882;27.680;85.304;2023-08-07T04:18:53;26.13;;;18.85;;
50906;SDS011;36882;27.680;85.304;2023-08-07T04:21:23;25.08;;;17.65;;
50906;SDS011;36882;27.680;85.304;2023-08-07T04:23:54;26.73;;;19.02;;
50906;SDS011;36882;27.680;85.304;2023-08-07T04:26:24;31.83;;;21.42;;
50906;SDS011;36882;27.680;85.304;2023-08-07T04:28:54;30.50;;;20.05;;
50906;SDS011;36882;27.680;85.304;2023-08-07T04:31:23;28.10;;;20.75;;
50906;SDS011;36882;27.680;85.304;2023-08-07T04:33:53;26.90;;;22.38;;
50906;SDS011;36882;27.680;85.304;2023-08-07T04:36:23;25.23;;;21.23;;
50906;SDS011;36882;27.680;85.304;2023-08-07T04:38:54;26.08;;;20.42;;
50906;SDS011;36882;27.680;85.304;2023-08-07T04:41:24;25.80;;;20.45;;
50906;SDS011;36882;27.680;85.304;2023-08-07T04:43:54;29.85;;;22.20;;
50906;SDS011;36882;27.680;85.304;2023-08-07T04:46:23;27.98;;;22.10;;
50906;SDS011;36882;27.680;85.304;2023-08-07T04:48:54;25.05;;;22.40;;
50906;SDS011;36882;27.680;85.304;2023-08-07T04:51:25;24.70;;;21.00;;
50906;SDS011;36882;27.680;85.304;2023-08-07T04:53:57;26.30;;;20.45;;
50906;SDS011;36882;27.680;85.304;2023-08-07T04:56:27;36.17;;;20.45;;
50906;SDS011;36882;27.680;85.304;2023-08-07T04:58:57;24.17;;;21.50;;
50906;SDS011;36882;27.680;85.304;2023-08-07T05:01:27;25.85;;;20.05;;
50906;SDS011;36882;27.680;85.304;2023-08-07T05:03:57;23.48;;;21.08;;
50906;SDS011;36882;27.680;85.304;2023-08-07T05:06:27;16.75;;;14.18;;
50906;SDS011;36882;27.680;85.304;2023-08-07T05:08:57;17.58;;;11.32;;
50906;SDS011;36882;27.680;85.304;2023-08-07T05:11:27;13.60;;;12.15;;
50906;SDS011;36882;27.680;85.304;2023-08-07T05:13:57;17.42;;;15.55;;
50906;SDS011;36882;27.680;85.304;2023-08-07T05:16:27;17.45;;;15.60;;
50906;SDS011;36882;27.680;85.304;2023-08-07T05:18:58;18.48;;;14.50;;
50906;SDS011;36882;27.680;85.304;2023-08-07T05:21:28;16.13;;;14.00;;
50906;SDS011;36882;27.680;85.304;2023-08-07T05:23:58;16.48;;;14.80;;
50906;SDS011;36882;27.680;85.304;2023-08-07T05:26:28;20.00;;;15.70;;
50906;SDS011;36882;27.680;85.304;2023-08-07T05:28:58;18.85;;;15.18;;
50906;SDS011;36882;27.680;85.304;2023-08-07T05:31:28;10.75;;;8.63;;
50906;SDS011;36882;27.680;85.304;2023-08-07T05:33:59;15.43;;;10.05;;
50906;SDS011;36882;27.680;85.304;2023-08-07T05:36:29;12.52;;;9.82;;
50906;SDS011;36882;27.680;85.304;2023-08-07T05:39:01;18.52;;;11.38;;
50906;SDS011;36882;27.680;85.304;2023-08-07T05:41:32;20.08;;;12.70;;
50906;SDS011;36882;27.680;85.304;2023-08-07T05:44:02;14.38;;;12.70;;
50906;SDS011;36882;27.680;85.304;2023-08-07T05:46:33;12.52;;;9.70;;
50906;SDS011;36882;27.680;85.304;2023-08-07T05:49:03;14.05;;;8.45;;
50906;SDS011;36882;27.680;85.304;2023-08-07T05:51:33;13.25;;;10.15;;
50906;SDS011;36882;27.680;85.304;2023-08-07T05:56:12;12.05;;;9.82;;
50906;SDS011;36882;27.680;85.304;2023-08-07T05:58:42;14.32;;;11.32;;
50906;SDS011;36882;27.680;85.304;2023-08-07T06:01:11;14.27;;;11.18;;
50906;SDS011;36882;27.680;85.304;2023-08-07T06:03:43;12.88;;;10.70;;
50906;SDS011;36882;27.680;85.304;2023-08-07T06:06:13;15.90;;;12.43;;
50906;SDS011;36882;27.680;85.304;2023-08-07T06:08:43;19.25;;;11.98;;
50906;SDS011;36882;27.680;85.304;2023-08-07T06:11:13;26.65;;;14.50;;
50906;SDS011;36882;27.680;85.304;2023-08-07T06:13:43;22.40;;;13.43;;
50906;SDS011;36882;27.680;85.304;2023-08-07T06:16:13;15.73;;;13.13;;
50906;SDS011;36882;27.680;85.304;2023-08-07T06:18:43;15.65;;;11.25;;
50906;SDS011;36882;27.680;85.304;2023-08-07T06:21:13;14.50;;;11.57;;
50906;SDS011;36882;27.680;85.304;2023-08-07T06:23:46;16.05;;;10.93;;
50906;SDS011;36882;27.680;85.304;2023-08-07T06:26:16;15.93;;;11.05;;
50906;SDS011;36882;27.680;85.304;2023-08-07T06:28:47;14.07;;;9.02;;
50906;SDS011;36882;27.680;85.304;2023-08-07T06:31:17;15.15;;;8.93;;
50906;SDS011;36882;27.680;85.304;2023-08-07T06:33:49;9.60;;;7.60;;
50906;SDS011;36882;27.680;85.304;2023-08-07T06:36:19;15.50;;;8.13;;
50906;SDS011;36882;27.680;85.304;2023-08-07T06:38:49;10.50;;;6.57;;
50906;SDS011;36882;27.680;85.304;2023-08-07T06:41:19;6.10;;;3.35;;
50906;SDS011;36882;27.680;85.304;2023-08-07T06:43:49;5.18;;;3.83;;
50906;SDS011;36882;27.680;85.304;2023-08-07T06:46:20;8.73;;;3.90;;
50906;SDS011;36882;27.680;85.304;2023-08-07T06:48:55;7.82;;;3.92;;
50906;SDS011;36882;27.680;85.304;2023-08-07T06:51:24;10.43;;;3.55;;
50906;SDS011;36882;27.680;85.304;2023-08-07T06:53:57;9.40;;;4.63;;
50906;SDS011;36882;27.680;85.304;2023-08-07T06:56:27;4.15;;;3.03;;
50906;SDS011;36882;27.680;85.304;2023-08-07T06:58:58;5.75;;;2.95;;
50906;SDS011;36882;27.680;85.304;2023-08-07T07:01:28;8.73;;;4.00;;
50906;SDS011;36882;27.680;85.304;2023-08-07T07:03:58;5.97;;;2.65;;
50906;SDS011;36882;27.680;85.304;2023-08-07T07:06:28;6.45;;;4.18;;
50906;SDS011;36882;27.680;85.304;2023-08-07T07:09:01;7.70;;;3.75;;
50906;SDS011;36882;27.680;85.304;2023-08-07T07:11:32;12.13;;;4.50;;
50906;SDS011;36882;27.680;85.304;2023-08-07T07:14:03;8.57;;;3.35;;
50906;SDS011;36882;27.680;85.304;2023-08-07T07:16:33;8.85;;;4.05;;
50906;SDS011;36882;27.680;85.304;2023-08-07T07:19:04;8.07;;;4.75;;
50906;SDS011;36882;27.680;85.304;2023-08-07T07:21:38;11.25;;;6.13;;
50906;SDS011;36882;27.680;85.304;2023-08-07T07:24:08;5.93;;;4.95;;
50906;SDS011;36882;27.680;85.304;2023-08-07T07:26:40;10.45;;;6.88;;
50906;SDS011;36882;27.680;85.304;2023-08-07T07:29:10;22.17;;;8.20;;
50906;SDS011;36882;27.680;85.304;2023-08-07T07:31:40;12.40;;;7.20;;
50906;SDS011;36882;27.680;85.304;2023-08-07T07:34:10;13.43;;;9.40;;
50906;SDS011;36882;27.680;85.304;2023-08-07T07:36:44;13.48;;;8.88;;
50906;SDS011;36882;27.680;85.304;2023-08-07T07:39:14;12.43;;;8.32;;
50906;SDS011;36882;27.680;85.304;2023-08-07T07:41:46;11.30;;;7.90;;
50906;SDS011;36882;27.680;85.304;2023-08-07T07:44:16;16.77;;;8.57;;
50906;SDS011;36882;27.680;85.304;2023-08-07T07:46:47;12.05;;;7.00;;
50906;SDS011;36882;27.680;85.304;2023-08-07T07:49:18;9.57;;;7.32;;
50906;SDS011;36882;27.680;85.304;2023-08-07T07:51:48;7.88;;;6.53;;
50906;SDS011;36882;27.680;85.304;2023-08-07T07:54:20;13.48;;;7.97;;
50906;SDS011;36882;27.680;85.304;2023-08-07T07:56:50;10.82;;;7.60;;
50906;SDS011;36882;27.680;85.304;2023-08-07T07:59:21;14.07;;;6.65;;
50906;SDS011;36882;27.680;85.304;2023-08-07T08:01:51;11.70;;;7.88;;
50906;SDS011;36882;27.680;85.304;2023-08-07T08:04:21;8.57;;;6.60;;
50906;SDS011;36882;27.680;85.304;2023-08-07T08:06:54;13.65;;;8.02;;
50906;SDS011;36882;27.680;85.304;2023-08-07T08:09:34;10.20;;;6.63;;
50906;SDS011;36882;27.680;85.304;2023-08-07T08:12:26;10.57;;;7.10;;
50906;SDS011;36882;27.680;85.304;2023-08-07T08:15:01;8.45;;;6.20;;
50906;SDS011;36882;27.680;85.304;2023-08-07T08:17:34;9.48;;;5.13;;
50906;SDS011;36882;27.680;85.304;2023-08-07T08:20:05;15.07;;;6.63;;
50906;SDS011;36882;27.680;85.304;2023-08-07T08:22:36;10.07;;;4.90;;
50906;SDS011;36882;27.680;85.304;2023-08-07T08:25:06;6.93;;;4.90;;
50906;SDS011;36882;27.680;85.304;2023-08-07T08:27:38;9.52;;;4.25;;
50906;SDS011;36882;27.680;85.304;2023-08-07T08:30:09;7.80;;;4.43;;
50906;SDS011;36882;27.680;85.304;2023-08-07T08:32:39;8.55;;;4.22;;
50906;SDS011;36882;27.680;85.304;2023-08-07T08:35:09;5.85;;;4.60;;
50906;SDS011;36882;27.680;85.304;2023-08-07T08:37:40;8.15;;;5.50;;
50906;SDS011;36882;27.680;85.304;2023-08-07T08:40:10;8.77;;;5.90;;
50906;SDS011;36882;27.680;85.304;2023-08-07T08:42:46;11.15;;;5.82;;
50906;SDS011;36882;27.680;85.304;2023-08-07T08:45:16;9.43;;;5.70;;
50906;SDS011;36882;27.680;85.304;2023-08-07T08:47:48;10.30;;;7.18;;
50906;SDS011;36882;27.680;85.304;2023-08-07T08:50:23;10.25;;;6.28;;
50906;SDS011;36882;27.680;85.304;2023-08-07T08:52:55;14.73;;;6.68;;
50906;SDS011;36882;27.680;85.304;2023-08-07T08:55:26;19.60;;;7.47;;
50906;SDS011;36882;27.680;85.304;2023-08-07T08:57:56;13.25;;;7.03;;
50906;SDS011;36882;27.680;85.304;2023-08-07T09:00:29;16.55;;;7.15;;
50906;SDS011;36882;27.680;85.304;2023-08-07T09:03:01;13.95;;;6.40;;
50906;SDS011;36882;27.680;85.304;2023-08-07T09:05:31;19.50;;;6.20;;
50906;SDS011;36882;27.680;85.304;2023-08-07T09:08:02;13.85;;;5.75;;
50906;SDS011;36882;27.680;85.304;2023-08-07T09:10:33;14.43;;;5.95;;
50906;SDS011;36882;27.680;85.304;2023-08-07T09:13:09;12.70;;;5.53;;
50906;SDS011;36882;27.680;85.304;2023-08-07T09:15:43;13.18;;;5.75;;
50906;SDS011;36882;27.680;85.304;2023-08-07T09:18:21;16.20;;;7.70;;
50906;SDS011;36882;27.680;85.304;2023-08-07T09:21:02;14.95;;;7.55;;
50906;SDS011;36882;27.680;85.304;2023-08-07T09:23:43;12.95;;;6.50;;
50906;SDS011;36882;27.680;85.304;2023-08-07T09:26:38;13.73;;;7.68;;
50906;SDS011;36882;27.680;85.304;2023-08-07T09:29:14;15.60;;;7.10;;
50906;SDS011;36882;27.680;85.304;2023-08-07T09:31:53;10.47;;;5.63;;
50906;SDS011;36882;27.680;85.304;2023-08-07T09:34:33;14.55;;;5.72;;
50906;SDS011;36882;27.680;85.304;2023-08-07T09:37:17;12.18;;;6.22;;
50906;SDS011;36882;27.680;85.304;2023-08-07T09:40:02;9.18;;;5.93;;
50906;SDS011;36882;27.680;85.304;2023-08-07T09:42:52;16.70;;;7.03;;
50906;SDS011;36882;27.680;85.304;2023-08-07T09:45:47;11.65;;;5.82;;
50906;SDS011;36882;27.680;85.304;2023-08-07T09:48:47;11.77;;;5.60;;
50906;SDS011;36882;27.680;85.304;2023-08-07T09:51:27;10.50;;;6.35;;
50906;SDS011;36882;27.680;85.304;2023-08-07T09:54:14;13.48;;;7.45;;
50906;SDS011;36882;27.680;85.304;2023-08-07T09:56:51;9.10;;;5.60;;
50906;SDS011;36882;27.680;85.304;2023-08-07T09:59:43;10.60;;;5.35;;
50906;SDS011;36882;27.680;85.304;2023-08-07T10:02:37;8.23;;;5.57;;
50906;SDS011;36882;27.680;85.304;2023-08-07T10:05:09;20.85;;;7.55;;
50906;SDS011;36882;27.680;85.304;2023-08-07T10:07:42;12.85;;;5.90;;
50906;SDS011;36882;27.680;85.304;2023-08-07T10:10:15;11.43;;;6.50;;
50906;SDS011;36882;27.680;85.304;2023-08-07T10:12:59;16.67;;;6.15;;
50906;SDS011;36882;27.680;85.304;2023-08-07T10:15:35;14.65;;;6.15;;
50906;SDS011;36882;27.680;85.304;2023-08-07T10:18:09;11.43;;;6.38;;
50906;SDS011;36882;27.680;85.304;2023-08-07T10:20:42;8.10;;;5.15;;
50906;SDS011;36882;27.680;85.304;2023-08-07T10:23:13;10.45;;;5.32;;
50906;SDS011;36882;27.680;85.304;2023-08-07T10:25:45;10.00;;;5.35;;
50906;SDS011;36882;27.680;85.304;2023-08-07T10:28:27;17.13;;;6.95;;
50906;SDS011;36882;27.680;85.304;2023-08-07T10:31:01;14.95;;;6.03;;
50906;SDS011;36882;27.680;85.304;2023-08-07T10:33:35;10.32;;;5.25;;
50906;SDS011;36882;27.680;85.304;2023-08-07T10:36:09;25.08;;;6.72;;
50906;SDS011;36882;27.680;85.304;2023-08-07T10:38:41;13.20;;;6.00;;
50906;SDS011;36882;27.680;85.304;2023-08-07T10:41:21;16.77;;;8.05;;
50906;SDS011;36882;27.680;85.304;2023-08-07T10:43:58;17.48;;;7.45;;
50906;SDS011;36882;27.680;85.304;2023-08-07T10:46:55;12.15;;;7.43;;
50906;SDS011;36882;27.680;85.304;2023-08-07T10:49:38;17.95;;;8.05;;
50906;SDS011;36882;27.680;85.304;2023-08-07T10:52:14;16.85;;;7.18;;
50906;SDS011;36882;27.680;85.304;2023-08-07T10:54:49;17.95;;;6.97;;
50906;SDS011;36882;27.680;85.304;2023-08-07T10:57:26;15.40;;;7.15;;
50906;SDS011;36882;27.680;85.304;2023-08-07T11:00:26;15.85;;;6.75;;
50906;SDS011;36882;27.680;85.304;2023-08-07T11:02:58;12.45;;;7.60;;
50906;SDS011;36882;27.680;85.304;2023-08-07T11:05:31;20.98;;;7.95;;
50906;SDS011;36882;27.680;85.304;2023-08-07T11:08:01;14.20;;;8.57;;
50906;SDS011;36882;27.680;85.304;2023-08-07T11:10:32;13.75;;;8.07;;
50906;SDS011;36882;27.680;85.304;2023-08-07T11:13:02;15.00;;;8.52;;
50906;SDS011;36882;27.680;85.304;2023-08-07T11:15:34;10.73;;;7.22;;
50906;SDS011;36882;27.680;85.304;2023-08-07T11:18:05;10.30;;;7.10;;
50906;SDS011;36882;27.680;85.304;2023-08-07T11:20:40;14.30;;;7.63;;
50906;SDS011;36882;27.680;85.304;2023-08-07T11:23:11;12.88;;;7.00;;
50906;SDS011;36882;27.680;85.304;2023-08-07T11:25:41;13.32;;;7.70;;
50906;SDS011;36882;27.680;85.304;2023-08-07T11:28:11;9.65;;;7.95;;
50906;SDS011;36882;27.680;85.304;2023-08-07T11:30:50;14.50;;;8.52;;
50906;SDS011;36882;27.680;85.304;2023-08-07T11:33:21;14.57;;;8.32;;
50906;SDS011;36882;27.680;85.304;2023-08-07T11:35:53;10.35;;;7.50;;
50906;SDS011;36882;27.680;85.304;2023-08-07T11:38:31;14.10;;;7.70;;
50906;SDS011;36882;27.680;85.304;2023-08-07T11:41:03;9.73;;;6.28;;
50906;SDS011;36882;27.680;85.304;2023-08-07T11:43:35;8.52;;;5.30;;
50906;SDS011;36882;27.680;85.304;2023-08-07T11:46:08;9.25;;;6.38;;
50906;SDS011;36882;27.680;85.304;2023-08-07T11:48:40;13.27;;;7.72;;
50906;SDS011;36882;27.680;85.304;2023-08-07T11:51:11;12.80;;;7.65;;
50906;SDS011;36882;27.680;85.304;2023-08-07T11:53:41;15.35;;;8.15;;
50906;SDS011;36882;27.680;85.304;2023-08-07T11:56:12;17.33;;;8.90;;
50906;SDS011;36882;27.680;85.304;2023-08-07T11:58:43;12.40;;;8.80;;
50906;SDS011;36882;27.680;85.304;2023-08-07T12:01:17;18.30;;;9.95;;
50906;SDS011;36882;27.680;85.304;2023-08-07T12:04:22;17.15;;;9.20;;
50906;SDS011;36882;27.680;85.304;2023-08-07T12:06:55;14.60;;;8.82;;
50906;SDS011;36882;27.680;85.304;2023-08-07T12:09:27;17.88;;;8.70;;
50906;SDS011;36882;27.680;85.304;2023-08-07T12:11:59;14.52;;;8.93;;
50906;SDS011;36882;27.680;85.304;2023-08-07T12:14:31;20.88;;;10.77;;
50906;SDS011;36882;27.680;85.304;2023-08-07T12:17:01;16.40;;;9.23;;
50906;SDS011;36882;27.680;85.304;2023-08-07T12:19:38;18.25;;;8.52;;
50906;SDS011;36882;27.680;85.304;2023-08-07T12:22:11;24.13;;;10.40;;
50906;SDS011;36882;27.680;85.304;2023-08-07T12:24:41;18.40;;;9.40;;
50906;SDS011;36882;27.680;85.304;2023-08-07T12:27:11;13.60;;;8.25;;
50906;SDS011;36882;27.680;85.304;2023-08-07T12:29:41;11.77;;;7.35;;
50906;SDS011;36882;27.680;85.304;2023-08-07T12:32:11;13.55;;;8.35;;
50906;SDS011;36882;27.680;85.304;2023-08-07T12:34:41;14.30;;;8.40;;
50906;SDS011;36882;27.680;85.304;2023-08-07T12:37:18;15.02;;;8.00;;
50906;SDS011;36882;27.680;85.304;2023-08-07T12:39:48;13.85;;;7.82;;
50906;SDS011;36882;27.680;85.304;2023-08-07T12:42:21;13.50;;;7.28;;
50906;SDS011;36882;27.680;85.304;2023-08-07T12:44:51;14.00;;;8.43;;
50906;SDS011;36882;27.680;85.304;2023-08-07T12:47:22;21.40;;;9.55;;
50906;SDS011;36882;27.680;85.304;2023-08-07T12:49:52;21.40;;;8.98;;
50906;SDS011;36882;27.680;85.304;2023-08-07T12:52:22;13.10;;;8.13;;
50906;SDS011;36882;27.680;85.304;2023-08-07T12:54:52;20.38;;;9.45;;
50906;SDS011;36882;27.680;85.304;2023-08-07T12:57:22;12.60;;;8.48;;
50906;SDS011;36882;27.680;85.304;2023-08-07T12:59:53;22.00;;;9.35;;
50906;SDS011;36882;27.680;85.304;2023-08-07T13:02:23;16.10;;;9.98;;
50906;SDS011;36882;27.680;85.304;2023-08-07T13:04:55;17.95;;;10.15;;
50906;SDS011;36882;27.680;85.304;2023-08-07T13:07:25;20.77;;;11.38;;
50906;SDS011;36882;27.680;85.304;2023-08-07T13:09:55;17.55;;;9.90;;
50906;SDS011;36882;27.680;85.304;2023-08-07T13:12:25;16.90;;;9.15;;
50906;SDS011;36882;27.680;85.304;2023-08-07T13:14:56;14.32;;;10.95;;
50906;SDS011;36882;27.680;85.304;2023-08-07T13:17:29;17.52;;;9.30;;
50906;SDS011;36882;27.680;85.304;2023-08-07T13:19:59;18.08;;;10.40;;
50906;SDS011;36882;27.680;85.304;2023-08-07T13:22:31;18.05;;;11.07;;
50906;SDS011;36882;27.680;85.304;2023-08-07T13:25:01;14.82;;;11.25;;
50906;SDS011;36882;27.680;85.304;2023-08-07T13:27:34;19.67;;;9.80;;
50906;SDS011;36882;27.680;85.304;2023-08-07T13:30:06;17.40;;;11.07;;
50906;SDS011;36882;27.680;85.304;2023-08-07T13:32:37;13.13;;;10.55;;
50906;SDS011;36882;27.680;85.304;2023-08-07T13:35:07;15.90;;;10.80;;
50906;SDS011;36882;27.680;85.304;2023-08-07T13:37:37;23.23;;;10.77;;
50906;SDS011;36882;27.680;85.304;2023-08-07T13:40:09;13.15;;;9.32;;
50906;SDS011;36882;27.680;85.304;2023-08-07T13:42:39;13.43;;;8.48;;
50906;SDS011;36882;27.680;85.304;2023-08-07T13:45:10;14.00;;;9.77;;
50906;SDS011;36882;27.680;85.304;2023-08-07T13:47:41;13.57;;;9.10;;
50906;SDS011;36882;27.680;85.304;2023-08-07T13:50:12;15.25;;;8.68;;
50906;SDS011;36882;27.680;85.304;2023-08-07T13:52:43;14.77;;;8.55;;
50906;SDS011;36882;27.680;85.304;2023-08-07T13:55:29;13.63;;;8.68;;
50906;SDS011;36882;27.680;85.304;2023-08-07T13:57:59;10.63;;;7.70;;
50906;SDS011;36882;27.680;85.304;2023-08-07T14:00:30;13.07;;;6.97;;
50906;SDS011;36882;27.680;85.304;2023-08-07T14:03:03;11.18;;;7.97;;
50906;SDS011;36882;27.680;85.304;2023-08-07T14:05:34;15.85;;;9.25;;
50906;SDS011;36882;27.680;85.304;2023-08-07T14:08:06;20.98;;;9.60;;
50906;SDS011;36882;27.680;85.304;2023-08-07T14:10:39;19.75;;;9.93;;
50906;SDS011;36882;27.680;85.304;2023-08-07T14:13:09;19.65;;;11.05;;
50906;SDS011;36882;27.680;85.304;2023-08-07T14:15:40;17.38;;;11.52;;
50906;SDS011;36882;27.680;85.304;2023-08-07T14:18:13;12.88;;;8.93;;
50906;SDS011;36882;27.680;85.304;2023-08-07T14:20:44;15.55;;;9.13;;
50906;SDS011;36882;27.680;85.304;2023-08-07T14:23:29;12.10;;;7.60;;
50906;SDS011;36882;27.680;85.304;2023-08-07T14:26:00;16.20;;;9.50;;
50906;SDS011;36882;27.680;85.304;2023-08-07T14:28:30;12.60;;;8.63;;
50906;SDS011;36882;27.680;85.304;2023-08-07T14:31:07;15.43;;;8.80;;
50906;SDS011;36882;27.680;85.304;2023-08-07T14:33:38;14.48;;;9.45;;
50906;SDS011;36882;27.680;85.304;2023-08-07T14:36:08;12.63;;;8.60;;
50906;SDS011;36882;27.680;85.304;2023-08-07T14:38:38;14.43;;;8.82;;
50906;SDS011;36882;27.680;85.304;2023-08-07T14:41:08;13.15;;;9.25;;
50906;SDS011;36882;27.680;85.304;2023-08-07T14:43:38;13.10;;;9.52;;
50906;SDS011;36882;27.680;85.304;2023-08-07T14:46:08;16.13;;;11.00;;
50906;SDS011;36882;27.680;85.304;2023-08-07T14:48:38;14.65;;;9.65;;
50906;SDS011;36882;27.680;85.304;2023-08-07T14:51:08;16.38;;;9.98;;
50906;SDS011;36882;27.680;85.304;2023-08-07T14:53:38;13.25;;;10.27;;
50906;SDS011;36882;27.680;85.304;2023-08-07T14:56:08;12.85;;;10.18;;
50906;SDS011;36882;27.680;85.304;2023-08-07T14:58:40;14.60;;;10.63;;
50906;SDS011;36882;27.680;85.304;2023-08-07T15:01:10;14.18;;;9.10;;
50906;SDS011;36882;27.680;85.304;2023-08-07T15:03:40;15.23;;;9.25;;
50906;SDS011;36882;27.680;85.304;2023-08-07T15:06:12;13.60;;;5.95;;
50906;SDS011;36882;27.680;85.304;2023-08-07T15:08:44;10.50;;;5.18;;
50906;SDS011;36882;27.680;85.304;2023-08-07T15:11:14;11.07;;;5.40;;
50906;SDS011;36882;27.680;85.304;2023-08-07T15:13:45;10.52;;;5.20;;
50906;SDS011;36882;27.680;85.304;2023-08-07T15:16:15;10.60;;;4.72;;
50906;SDS011;36882;27.680;85.304;2023-08-07T15:18:45;9.98;;;4.80;;
50906;SDS011;36882;27.680;85.304;2023-08-07T15:21:15;8.68;;;4.20;;
50906;SDS011;36882;27.680;85.304;2023-08-07T15:27:11;10.40;;;5.63;;
50906;SDS011;36882;27.680;85.304;2023-08-07T15:29:44;9.30;;;5.05;;
50906;SDS011;36882;27.680;85.304;2023-08-07T15:32:15;15.07;;;6.60;;
50906;SDS011;36882;27.680;85.304;2023-08-07T15:34:48;9.82;;;6.85;;
50906;SDS011;36882;27.680;85.304;2023-08-07T15:37:19;18.15;;;10.38;;
50906;SDS011;36882;27.680;85.304;2023-08-07T15:39:48;23.10;;;15.05;;
50906;SDS011;36882;27.680;85.304;2023-08-07T15:42:19;21.00;;;16.40;;
50906;SDS011;36882;27.680;85.304;2023-08-07T15:44:49;25.25;;;16.25;;